Time;durP1;ratioP1;P1;durP2;ratioP2;P2;SDS_P1;SDS_P2;PMS_P1;PMS_P2;Temp;Humidity;BMP_temperature;BMP_pressure;BME280_temperature;BME280_humidity;BME280_pressure;Samples;Min_cycle;Max_cycle;Signal;HPM_P1;HPM_P2
2023/12/20 00:01:38;;;;;;;16.80;6.03;;;;;;;15.30;56.16;101353.56;5053113;28;20053;-60
2023/12/20 00:04:04;;;;;;;12.73;6.05;;;;;;;15.32;56.21;101378.59;5053849;28;20033;-60
2023/12/20 00:06:31;;;;;;;13.90;6.78;;;;;;;15.29;55.43;101378.88;5052028;28;20381;-60
2023/12/20 00:08:57;;;;;;;12.63;5.70;;;;;;;15.26;55.52;101389.97;5052416;28;20119;-60
2023/12/20 00:11:23;;;;;;;13.52;6.30;;;;;;;15.26;56.06;101400.75;5073520;28;20090;-67
2023/12/20 00:13:48;;;;;;;13.65;5.88;;;;;;;15.25;55.97;101393.63;5072179;28;20029;-66
2023/12/20 00:16:14;;;;;;;10.85;5.05;;;;;;;15.18;55.48;101397.94;5072272;28;20104;-66
2023/12/20 00:18:39;;;;;;;9.02;4.43;;;;;;;15.15;55.24;101401.78;5073036;28;20030;-66
2023/12/20 00:21:05;;;;;;;6.13;2.97;;;;;;;15.08;55.23;101405.16;5071675;28;20441;-67
2023/12/20 00:23:30;;;;;;;7.63;2.97;;;;;;;15.02;55.52;101403.03;5071968;28;20028;-66
2023/12/20 00:25:57;;;;;;;5.93;2.92;;;;;;;15.01;54.97;101412.16;5072372;28;20029;-66
2023/12/20 00:28:22;;;;;;;12.32;3.10;;;;;;;14.93;55.94;101420.97;5072227;28;20032;-66
2023/12/20 00:30:48;;;;;;;5.80;2.20;;;;;;;14.91;55.40;101430.16;5073930;28;20488;-65
2023/12/20 00:33:13;;;;;;;8.60;2.67;;;;;;;14.86;56.02;101429.75;5073194;28;20125;-66
2023/12/20 00:35:38;;;;;;;7.63;1.98;;;;;;;14.82;55.63;101433.75;5055083;28;20035;-66
2023/12/20 00:38:06;;;;;;;10.05;1.75;;;;;;;14.78;55.54;101432.31;5071821;28;20036;-65
2023/12/20 00:40:32;;;;;;;9.88;2.20;;;;;;;14.74;54.44;101433.59;5071919;28;20040;-66
2023/12/20 00:42:58;;;;;;;11.68;2.63;;;;;;;14.71;55.00;101445.53;5054817;28;20105;-66
2023/12/20 00:45:24;;;;;;;12.15;1.80;;;;;;;14.68;55.25;101450.34;5073015;28;20496;-66
2023/12/20 00:47:49;;;;;;;4.25;1.60;;;;;;;14.66;55.32;101438.81;5071566;28;20112;-66
2023/12/20 00:50:14;;;;;;;5.47;1.30;;;;;;;14.62;54.61;101432.03;5071530;28;20515;-65
2023/12/20 00:52:40;;;;;;;3.38;1.50;;;;;;;14.57;55.61;101425.19;5072760;28;20032;-65
2023/12/20 00:55:07;;;;;;;4.53;1.48;;;;;;;14.51;54.17;101436.56;5071621;28;20036;-65
2023/12/20 00:57:33;;;;;;;5.00;1.17;;;;;;;14.48;54.03;101450.31;5072666;28;20036;-65
2023/12/20 00:59:58;;;;;;;7.80;1.15;;;;;;;14.40;54.80;101455.56;5054945;28;20029;-65
2023/12/20 01:02:23;;;;;;;5.53;1.20;;;;;;;14.41;54.82;101451.84;5072702;28;20036;-65
2023/12/20 01:04:49;;;;;;;11.80;0.90;;;;;;;14.40;53.90;101443.91;5071539;28;20119;-65
2023/12/20 01:07:14;;;;;;;6.35;0.98;;;;;;;14.41;54.18;101451.00;5071534;28;20501;-65
2023/12/20 01:09:39;;;;;;;18.23;2.05;;;;;;;14.36;54.19;101448.72;5072848;28;20039;-66
2023/12/20 01:12:06;;;;;;;8.70;0.90;;;;;;;14.33;55.01;101437.34;5073338;28;20032;-65
2023/12/20 01:14:32;;;;;;;3.85;1.10;;;;;;;14.37;55.24;101439.66;5074537;28;20070;-65
2023/12/20 01:16:57;;;;;;;6.03;1.02;;;;;;;14.37;54.76;101439.66;5073701;28;20054;-66
2023/12/20 01:19:24;;;;;;;3.35;0.65;;;;;;;14.38;54.29;101430.56;5071371;28;20033;-60
2023/12/20 01:21:50;;;;;;;1.83;0.80;;;;;;;14.38;54.93;101435.94;5071276;28;20082;-59
2023/12/20 01:24:15;;;;;;;3.28;0.95;;;;;;;14.37;53.56;101428.00;5072508;28;20032;-59
2023/12/20 01:26:40;;;;;;;5.30;1.27;;;;;;;14.34;55.13;101429.16;5072534;28;20115;-60
2023/12/20 01:29:06;;;;;;;5.70;0.80;;;;;;;14.32;55.26;101431.09;5071274;28;20039;-59
2023/12/20 01:31:31;;;;;;;8.10;0.88;;;;;;;14.33;53.61;101434.66;5052812;28;20396;-59
2023/12/20 01:33:56;;;;;;;1.83;0.75;;;;;;;14.32;54.78;101430.28;5051170;28;20053;-59
2023/12/20 01:36:22;;;;;;;5.10;0.90;;;;;;;14.29;54.27;101441.31;5050702;28;20063;-60
2023/12/20 01:38:47;;;;;;;9.73;1.10;;;;;;;14.24;54.10;101438.13;5051111;28;20040;-60
2023/12/20 01:41:12;;;;;;;10.85;1.20;;;;;;;14.24;54.83;101449.78;5049979;28;20037;-60
2023/12/20 01:43:38;;;;;;;2.30;0.82;;;;;;;14.19;53.61;101445.78;5051011;28;20039;-59
2023/12/20 01:46:04;;;;;;;4.65;0.98;;;;;;;14.20;53.11;101448.38;5051148;28;20463;-59
2023/12/20 01:48:31;;;;;;;5.82;1.52;;;;;;;14.18;54.14;101444.09;5050874;28;20169;-60
2023/12/20 01:50:57;;;;;;;5.28;1.08;;;;;;;14.14;53.41;101451.59;5051072;28;20044;-61
2023/12/20 01:53:24;;;;;;;5.95;1.08;;;;;;;14.10;54.12;101447.47;5068209;28;20399;-60
2023/12/20 01:55:50;;;;;;;5.70;1.10;;;;;;;14.11;54.38;101443.78;5070792;28;20023;-59
2023/12/20 01:58:16;;;;;;;3.55;1.05;;;;;;;14.08;53.43;101449.44;5054826;27;20032;-59
2023/12/20 02:00:41;;;;;;;10.45;1.02;;;;;;;14.05;54.20;101457.81;5074483;28;20020;-60
2023/12/20 02:03:07;;;;;;;12.43;1.92;;;;;;;14.06;53.38;101462.22;5077651;28;20047;-60
2023/12/20 02:05:35;;;;;;;3.83;0.95;;;;;;;14.03;54.86;101454.41;5077504;28;20054;-60
2023/12/20 02:08:00;;;;;;;12.65;0.93;;;;;;;13.99;54.22;101450.25;5077857;28;20016;-59
2023/12/20 02:10:26;;;;;;;10.35;1.33;;;;;;;13.96;54.29;101451.38;5075938;27;20024;-59
2023/12/20 02:12:51;;;;;;;8.02;1.52;;;;;;;13.95;54.46;101454.22;5075562;28;20468;-59
2023/12/20 02:15:17;;;;;;;5.82;0.80;;;;;;;13.94;54.38;101457.91;5076131;28;20025;-59
2023/12/20 02:17:43;;;;;;;4.70;0.90;;;;;;;13.92;53.73;101471.50;5074965;28;20017;-59
2023/12/20 02:20:08;;;;;;;11.10;1.42;;;;;;;13.91;54.22;101471.63;5074551;28;20036;-59
2023/12/20 02:22:33;;;;;;;5.70;1.30;;;;;;;13.89;53.27;101476.31;5057348;28;20024;-60
2023/12/20 02:24:59;;;;;;;13.57;1.50;;;;;;;13.89;53.57;101476.31;5075615;28;20024;-59
2023/12/20 02:27:24;;;;;;;7.00;1.52;;;;;;;13.88;54.44;101477.28;5057374;28;20032;-59
2023/12/20 02:29:50;;;;;;;5.95;1.20;;;;;;;13.88;54.45;101479.97;5073244;28;20025;-59
2023/12/20 02:32:17;;;;;;;6.90;1.67;;;;;;;13.84;54.48;101476.72;5057254;28;20031;-60
2023/12/20 02:34:43;;;;;;;5.00;0.90;;;;;;;13.84;53.29;101481.25;5073908;28;20024;-59
2023/12/20 02:37:08;;;;;;;7.60;1.20;;;;;;;13.81;54.50;101478.81;5075130;28;20020;-60
2023/12/20 02:39:33;;;;;;;3.42;1.40;;;;;;;13.79;54.61;101470.03;5057005;28;20036;-60
2023/12/20 02:41:59;;;;;;;9.25;1.15;;;;;;;13.76;54.32;101470.31;5073881;28;20595;-60
2023/12/20 02:44:24;;;;;;;6.35;1.38;;;;;;;13.74;54.16;101472.25;5056999;28;20123;-60
2023/12/20 02:46:50;;;;;;;7.97;1.90;;;;;;;13.72;53.79;101466.16;5074083;28;20028;-60
2023/12/20 02:49:17;;;;;;;5.03;2.22;;;;;;;13.75;53.30;101466.75;5073605;28;20025;-60
2023/12/20 02:51:42;;;;;;;3.78;1.70;;;;;;;13.76;53.21;101465.75;5075151;28;20480;-60
2023/12/20 02:54:08;;;;;;;6.50;1.65;;;;;;;13.75;54.23;101463.19;5075446;27;20051;-60
2023/12/20 02:56:33;;;;;;;13.15;2.25;;;;;;;13.77;53.25;101474.69;5074201;28;20465;-60
2023/12/20 02:58:58;;;;;;;3.97;1.33;;;;;;;13.75;54.00;101480.22;5073665;28;20029;-60
2023/12/20 03:01:24;;;;;;;8.13;2.40;;;;;;;13.76;53.87;101479.19;5073356;28;20447;-59
2023/12/20 03:03:49;;;;;;;5.63;1.67;;;;;;;13.76;53.93;101476.50;5074985;28;20105;-59
2023/12/20 03:06:18;;;;;;;13.25;2.33;;;;;;;13.76;53.25;101473.81;5073312;28;20032;-59
2023/12/20 03:08:44;;;;;;;4.35;1.38;;;;;;;13.72;54.33;101468.84;5056670;28;20039;-59
2023/12/20 03:11:09;;;;;;;4.45;1.63;;;;;;;13.67;53.63;101471.97;5073408;28;20032;-60
2023/12/20 03:13:35;;;;;;;8.93;1.52;;;;;;;13.65;53.59;101456.91;5073078;28;20028;-60
2023/12/20 03:16:00;;;;;;;5.60;2.63;;;;;;;13.64;53.85;101455.19;5056541;28;20353;-59
2023/12/20 03:18:27;;;;;;;6.45;1.70;;;;;;;13.59;53.32;101444.00;5074332;27;20489;-59
2023/12/20 03:20:53;;;;;;;7.93;1.98;;;;;;;13.59;54.67;101465.53;5073341;28;20044;-59
2023/12/20 03:23:18;;;;;;;8.93;1.75;;;;;;;13.55;53.25;101464.94;5074261;28;20032;-60
2023/12/20 03:25:44;;;;;;;11.23;1.80;;;;;;;13.54;54.06;101465.91;5075562;28;20031;-59
2023/12/20 03:28:09;;;;;;;4.53;1.23;;;;;;;13.55;54.00;101472.16;5072929;28;20573;-60
2023/12/20 03:30:34;;;;;;;5.68;1.95;;;;;;;13.55;53.52;101474.84;5056208;28;20025;-60
2023/12/20 03:33:00;;;;;;;4.88;1.80;;;;;;;13.52;54.44;101464.34;5074057;28;20048;-60
2023/12/20 03:35:25;;;;;;;8.13;1.52;;;;;;;13.54;54.88;101462.38;5074127;27;20064;-59
2023/12/20 03:37:53;;;;;;;9.57;1.70;;;;;;;13.53;53.55;101463.34;5073978;28;20377;-59
2023/12/20 03:40:18;;;;;;;4.45;1.58;;;;;;;13.50;53.90;101458.25;5073924;28;20090;-59
2023/12/20 03:42:44;;;;;;;8.45;1.92;;;;;;;13.53;54.34;101455.28;5072639;28;20443;-60
2023/12/20 03:45:11;;;;;;;7.75;1.65;;;;;;;13.53;54.11;101469.59;5055854;28;20032;-59
2023/12/20 03:47:36;;;;;;;21.40;2.70;;;;;;;13.51;53.05;101459.97;5055998;28;20028;-59
2023/12/20 03:50:02;;;;;;;6.50;1.75;;;;;;;13.51;53.29;101460.81;5055605;28;20396;-60
2023/12/20 03:52:27;;;;;;;6.47;2.03;;;;;;;13.52;54.11;101464.34;5073766;28;20082;-59
2023/12/20 03:54:53;;;;;;;7.25;1.83;;;;;;;13.54;53.67;101455.13;5073723;28;20029;-59
2023/12/20 03:57:18;;;;;;;12.68;1.65;;;;;;;13.52;53.21;101451.72;5073589;28;20559;-60
2023/12/20 03:59:43;;;;;;;8.38;2.05;;;;;;;13.48;53.87;101447.63;5074443;27;20033;-59
2023/12/20 04:02:10;;;;;;;5.50;1.60;;;;;;;13.49;53.83;101451.13;5055563;28;20031;-59
2023/12/20 04:04:35;;;;;;;8.02;1.90;;;;;;;13.47;53.24;101450.44;5071700;28;20028;-59
2023/12/20 04:07:01;;;;;;;5.63;1.30;;;;;;;13.41;53.24;101444.59;5072055;27;20396;-60
2023/12/20 04:09:27;;;;;;;12.90;2.30;;;;;;;13.39;53.42;101443.03;5072181;28;20086;-59
2023/12/20 04:11:52;;;;;;;5.80;1.42;;;;;;;13.38;53.04;101450.25;5073338;28;20591;-60
2023/12/20 04:14:18;;;;;;;11.55;2.03;;;;;;;13.38;53.75;101454.75;5055377;28;20028;-60
2023/12/20 04:16:43;;;;;;;3.22;1.58;;;;;;;13.38;53.70;101461.00;5055530;28;20365;-60
2023/12/20 04:19:09;;;;;;;6.45;2.53;;;;;;;13.42;52.94;101461.59;5071984;28;20082;-60
2023/12/20 04:21:34;;;;;;;11.68;3.03;;;;;;;13.36;53.98;101457.59;5071638;28;20455;-59
2023/12/20 04:23:59;;;;;;;7.10;1.92;;;;;;;13.35;53.49;101461.25;5071988;28;20101;-59
2023/12/20 04:26:25;;;;;;;7.65;1.58;;;;;;;13.35;54.45;101445.13;5072033;28;20032;-60
2023/12/20 04:28:50;;;;;;;10.40;1.33;;;;;;;13.30;53.90;101444.66;5073071;28;20035;-60
2023/12/20 04:31:16;;;;;;;4.22;1.60;;;;;;;13.33;53.89;101451.63;5073146;28;20029;-60
2023/12/20 04:33:41;;;;;;;8.60;1.65;;;;;;;13.33;53.61;101457.84;5073033;28;20029;-59
2023/12/20 04:36:08;;;;;;;10.02;1.65;;;;;;;13.33;53.58;101462.38;5073100;28;20032;-59
2023/12/20 04:38:34;;;;;;;12.52;1.63;;;;;;;13.32;54.13;101466.91;5071934;28;20028;-60
2023/12/20 04:40:59;;;;;;;8.75;1.83;;;;;;;13.32;54.00;101461.53;5073277;28;20040;-59
2023/12/20 04:43:25;;;;;;;13.32;1.90;;;;;;;13.29;53.92;101467.16;5072085;28;20396;-59
2023/12/20 04:45:50;;;;;;;8.25;2.53;;;;;;;13.30;53.66;101463.50;5073039;28;20553;-60
2023/12/20 04:48:16;;;;;;;12.80;2.28;;;;;;;13.27;54.15;101463.75;5070635;28;20443;-60
2023/12/20 04:50:42;;;;;;;12.50;1.95;;;;;;;13.29;54.60;101467.16;5073212;28;20400;-59
2023/12/20 04:53:07;;;;;;;4.18;0.95;;;;;;;13.28;53.64;101470.84;5072857;28;20404;-59
2023/12/20 04:55:33;;;;;;;9.10;1.75;;;;;;;13.30;54.51;101466.19;5071504;28;20029;-59
2023/12/20 04:57:58;;;;;;;6.72;2.42;;;;;;;13.30;54.41;101451.88;5071241;28;20037;-59
2023/12/20 05:00:24;;;;;;;8.20;2.63;;;;;;;13.28;54.41;101465.47;5071373;28;20037;-59
2023/12/20 05:02:49;;;;;;;7.03;1.67;;;;;;;13.32;53.63;101466.03;5072865;28;20378;-60
2023/12/20 05:05:17;;;;;;;11.60;2.55;;;;;;;13.31;53.75;101462.53;5072785;28;20029;-60
2023/12/20 05:07:42;;;;;;;8.23;3.10;;;;;;;13.31;54.46;101470.59;5071476;28;20059;-59
2023/12/20 05:10:08;;;;;;;12.15;1.77;;;;;;;13.31;53.86;101467.91;5072600;27;20040;-60
2023/12/20 05:12:34;;;;;;;10.57;1.88;;;;;;;13.35;53.02;101476.53;5072473;28;20459;-59
2023/12/20 05:15:00;;;;;;;11.38;1.95;;;;;;;13.37;54.03;101459.28;5072772;28;20078;-60
2023/12/20 05:17:25;;;;;;;6.85;1.67;;;;;;;13.36;53.65;101457.59;5072819;27;20537;-60
2023/12/20 05:19:51;;;;;;;12.18;1.95;;;;;;;13.36;53.74;101457.59;5071475;28;20033;-59
2023/12/20 05:22:17;;;;;;;5.97;2.15;;;;;;;13.37;54.73;101451.22;5071395;28;20127;-59
2023/12/20 05:24:42;;;;;;;8.68;1.88;;;;;;;13.35;54.06;101447.81;5071622;28;20052;-59
2023/12/20 05:27:07;;;;;;;3.80;1.40;;;;;;;13.37;53.24;101435.06;5071222;28;20063;-60
2023/12/20 05:29:33;;;;;;;8.68;3.03;;;;;;;13.38;53.96;101441.31;5072738;28;20525;-59
2023/12/20 05:31:59;;;;;;;5.13;2.03;;;;;;;13.36;54.07;101436.06;5055646;28;20028;-59
2023/12/20 05:34:24;;;;;;;8.40;2.60;;;;;;;13.43;53.51;101446.31;5068889;28;20134;-59
2023/12/20 05:36:49;;;;;;;4.55;1.52;;;;;;;13.44;53.56;101443.47;5075573;28;20078;-60
2023/12/20 05:39:15;;;;;;;3.92;1.67;;;;;;;13.43;54.21;101443.63;5076372;28;20039;-59
2023/12/20 05:41:40;;;;;;;6.28;1.63;;;;;;;13.43;53.96;101441.75;5075642;28;20511;-60
2023/12/20 05:44:05;;;;;;;16.85;1.83;;;;;;;13.45;53.58;101449.72;5058672;28;20036;-59
2023/12/20 05:46:31;;;;;;;6.05;1.40;;;;;;;13.47;53.41;101453.13;5055588;28;20098;-59
2023/12/20 05:48:56;;;;;;;6.05;1.50;;;;;;;13.43;53.93;101453.38;5076113;28;20060;-59
2023/12/20 05:51:22;;;;;;;7.35;1.80;;;;;;;13.43;53.03;101454.38;5076776;28;20540;-59
2023/12/20 05:53:49;;;;;;;8.65;2.63;;;;;;;13.38;54.09;101455.63;5075347;28;20040;-59
2023/12/20 05:56:15;;;;;;;9.63;2.15;;;;;;;13.39;53.05;101451.97;5058164;28;20165;-60
2023/12/20 05:58:40;;;;;;;5.00;1.52;;;;;;;13.40;54.08;101453.63;5074773;28;20061;-60
2023/12/20 06:01:07;;;;;;;6.13;1.77;;;;;;;13.41;53.59;101465.25;5057824;28;20040;-59
2023/12/20 06:03:33;;;;;;;8.05;1.90;;;;;;;13.40;53.13;101459.03;5076059;28;20047;-59
2023/12/20 06:06:00;;;;;;;14.70;2.78;;;;;;;13.40;53.49;101459.03;5074481;28;20060;-60
2023/12/20 06:08:25;;;;;;;10.38;1.73;;;;;;;13.41;54.08;101460.75;5074073;28;20495;-59
2023/12/20 06:10:51;;;;;;;16.58;3.35;;;;;;;13.45;52.75;101455.09;5074294;28;20036;-60
2023/12/20 06:13:16;;;;;;;10.50;2.22;;;;;;;13.49;53.34;101467.28;5074394;28;20590;-60
2023/12/20 06:15:42;;;;;;;6.82;1.75;;;;;;;13.45;54.00;101455.97;5074394;28;20032;-59
2023/12/20 06:18:07;;;;;;;9.02;2.05;;;;;;;13.42;53.42;101466.97;5056166;28;20052;-60
2023/12/20 06:20:33;;;;;;;14.20;2.00;;;;;;;13.40;53.81;101469.78;5055339;28;20493;-59
2023/12/20 06:22:58;;;;;;;9.82;2.80;;;;;;;13.43;54.14;101465.97;5054073;28;20033;-59
2023/12/20 06:25:24;;;;;;;11.63;3.03;;;;;;;13.39;53.75;101484.25;5053071;28;20098;-60
2023/12/20 06:27:49;;;;;;;6.70;1.83;;;;;;;13.38;54.10;101484.34;5053999;28;20065;-60
2023/12/20 06:30:15;;;;;;;6.53;2.20;;;;;;;13.37;54.19;101483.50;5037308;28;20033;-59
2023/12/20 06:32:42;;;;;;;6.13;2.00;;;;;;;13.35;53.08;101490.88;5061581;28;20123;-60
2023/12/20 06:35:08;;;;;;;14.40;3.33;;;;;;;13.37;53.05;101488.88;5076152;28;20037;-60
2023/12/20 06:37:34;;;;;;;11.55;2.95;;;;;;;13.39;53.28;101488.78;5075458;28;20028;-60
2023/12/20 06:39:59;;;;;;;9.02;1.92;;;;;;;13.34;54.08;101478.38;5058883;28;20032;-59
2023/12/20 06:42:24;;;;;;;6.95;1.70;;;;;;;13.33;53.54;101475.84;5074299;28;20040;-60
2023/12/20 06:44:50;;;;;;;8.93;1.88;;;;;;;13.32;52.90;101472.28;5073842;28;20033;-60
2023/12/20 06:47:15;;;;;;;8.57;2.30;;;;;;;13.32;53.29;101483.06;5073939;28;20028;-59
2023/12/20 06:49:40;;;;;;;5.97;2.85;;;;;;;13.29;54.26;101491.38;5073578;28;20038;-59
2023/12/20 06:52:06;;;;;;;8.18;2.08;;;;;;;13.28;53.83;101480.75;5075399;28;20035;-59
2023/12/20 06:54:33;;;;;;;7.30;1.80;;;;;;;13.30;52.82;101492.25;5059955;28;20032;-59
2023/12/20 06:56:59;;;;;;;16.23;2.45;;;;;;;13.26;52.58;101482.75;5077917;28;20044;-60
2023/12/20 06:59:25;;;;;;;8.15;1.92;;;;;;;13.28;52.92;101497.75;5076556;28;20065;-60
2023/12/20 07:01:51;;;;;;;12.95;2.30;;;;;;;13.26;53.78;101488.13;5077923;28;20129;-59
2023/12/20 07:04:20;;;;;;;12.70;1.95;;;;;;;13.22;53.26;101487.50;5077148;28;20068;-60
2023/12/20 07:06:45;;;;;;;10.88;2.15;;;;;;;13.20;52.98;101483.25;5076211;28;20082;-59
2023/12/20 07:09:10;;;;;;;4.85;1.90;;;;;;;13.14;52.55;101468.50;5073729;28;20036;-59
2023/12/20 07:11:36;;;;;;;15.05;2.30;;;;;;;13.14;53.41;101473.88;5073429;28;20504;-59
2023/12/20 07:14:01;;;;;;;10.82;1.90;;;;;;;13.12;53.08;101475.81;5074623;28;20061;-58
2023/12/20 07:16:26;;;;;;;11.32;2.33;;;;;;;13.06;53.53;101473.63;5072977;28;20028;-58
2023/12/20 07:18:52;;;;;;;11.55;2.90;;;;;;;13.06;53.38;101470.94;5073119;28;20036;-59
2023/12/20 07:21:17;;;;;;;6.57;2.17;;;;;;;13.04;53.54;101472.88;5072876;28;20655;-60
2023/12/20 07:23:43;;;;;;;20.30;2.28;;;;;;;13.05;53.01;101469.22;5056075;28;20037;-60
2023/12/20 07:26:08;;;;;;;12.13;2.13;;;;;;;13.08;53.80;101478.91;5073078;28;20032;-60
2023/12/20 07:28:34;;;;;;;8.52;2.17;;;;;;;13.07;53.36;101467.28;5056311;28;20044;-60
2023/12/20 07:31:00;;;;;;;7.45;2.45;;;;;;;13.04;52.69;101472.88;5073429;28;20035;-60
2023/12/20 07:33:25;;;;;;;4.65;1.88;;;;;;;13.03;54.04;101476.56;5074338;28;20423;-60
2023/12/20 07:35:51;;;;;;;9.40;2.42;;;;;;;13.02;52.77;101464.09;5074825;28;20032;-60
2023/12/20 07:38:17;;;;;;;6.55;2.80;;;;;;;13.02;53.34;101461.41;5056575;28;20029;-61
2023/12/20 07:40:42;;;;;;;15.95;2.20;;;;;;;13.01;52.44;101462.38;5075180;28;20031;-60
2023/12/20 07:43:08;;;;;;;7.95;1.73;;;;;;;13.01;52.64;101472.31;5074648;28;20116;-60
2023/12/20 07:45:34;;;;;;;9.57;2.10;;;;;;;13.01;53.40;101472.31;5075685;28;20546;-60
2023/12/20 07:47:59;;;;;;;7.57;2.40;;;;;;;12.99;53.55;101474.25;5072934;28;20107;-60
2023/12/20 07:50:24;;;;;;;12.00;2.47;;;;;;;12.97;52.48;101471.72;5072622;28;20506;-60
2023/12/20 07:52:51;;;;;;;15.55;2.65;;;;;;;12.97;52.87;101471.72;5072784;28;20032;-60
2023/12/20 07:55:16;;;;;;;11.25;2.67;;;;;;;12.99;53.74;101477.81;5073584;28;20492;-61
2023/12/20 07:57:41;;;;;;;9.93;2.60;;;;;;;13.02;53.77;101479.38;5073168;28;20035;-60
2023/12/20 08:00:07;;;;;;;9.38;3.13;;;;;;;13.02;54.12;101482.94;5078650;28;20044;-60
2023/12/20 08:02:33;;;;;;;12.25;3.05;;;;;;;12.98;53.30;101478.78;5075152;28;20064;-60
2023/12/20 08:04:59;;;;;;;18.02;4.25;;;;;;;13.00;52.62;101482.22;5072571;28;20064;-60
2023/12/20 08:07:25;;;;;;;10.57;2.85;;;;;;;12.99;52.49;101466.19;5074096;28;20049;-60
2023/12/20 08:09:52;;;;;;;6.05;2.53;;;;;;;13.00;52.83;101466.06;5074068;28;20037;-60
2023/12/20 08:12:18;;;;;;;12.43;2.75;;;;;;;13.04;53.11;101462.13;5070692;28;20119;-60
2023/12/20 08:14:43;;;;;;;9.82;3.30;;;;;;;13.05;52.55;101460.28;5080075;28;20071;-60
2023/12/20 08:17:09;;;;;;;10.80;2.95;;;;;;;13.05;53.17;101463.84;5074767;28;20059;-60
2023/12/20 08:19:35;;;;;;;12.60;2.47;;;;;;;13.05;52.40;101471.91;5066834;28;20032;-60
2023/12/20 08:22:01;;;;;;;11.25;2.80;;;;;;;13.02;53.28;101464.09;5055673;28;20082;-60
2023/12/20 08:24:26;;;;;;;7.88;2.03;;;;;;;13.04;52.84;101469.34;5073688;28;20029;-60
2023/12/20 08:26:52;;;;;;;11.65;2.33;;;;;;;13.05;53.75;101474.59;5073705;28;20522;-60
2023/12/20 08:29:18;;;;;;;12.65;2.35;;;;;;;13.07;53.60;101479.84;5074071;28;20067;-60
2023/12/20 08:31:43;;;;;;;13.40;2.25;;;;;;;13.08;52.78;101490.50;5080310;28;20055;-60
2023/12/20 08:34:11;;;;;;;12.63;2.75;;;;;;;13.13;53.20;101488.28;5073764;28;20396;-60
2023/12/20 08:36:36;;;;;;;8.00;2.10;;;;;;;13.17;53.04;101500.50;5055633;28;20067;-60
2023/12/20 08:39:03;;;;;;;14.80;2.13;;;;;;;13.20;53.20;101489.50;5072455;28;20037;-60
2023/12/20 08:41:28;;;;;;;10.30;2.10;;;;;;;13.28;53.84;101491.53;5072029;28;20079;-60
2023/12/20 08:43:54;;;;;;;12.43;1.83;;;;;;;13.30;52.45;101490.41;5073236;28;20527;-61
2023/12/20 08:46:19;;;;;;;15.43;1.88;;;;;;;13.29;53.94;101477.06;5071675;28;20036;-60
2023/12/20 08:48:45;;;;;;;10.38;2.50;;;;;;;13.29;52.19;101482.44;5071745;28;20037;-60
2023/12/20 08:51:10;;;;;;;6.20;1.80;;;;;;;13.28;52.61;101487.00;5071822;28;20082;-60
2023/12/20 08:53:35;;;;;;;17.00;3.05;;;;;;;13.33;52.61;101484.75;5071633;28;20056;-60
2023/12/20 08:56:01;;;;;;;5.82;1.63;;;;;;;13.34;53.51;101488.31;5071617;28;20029;-60
2023/12/20 08:58:27;;;;;;;9.95;2.90;;;;;;;13.39;52.92;101489.63;5072789;28;20427;-60
2023/12/20 09:00:53;;;;;;;6.90;1.70;;;;;;;13.47;53.59;101490.78;5054667;28;20025;-60
2023/12/20 09:03:18;;;;;;;8.23;2.10;;;;;;;13.61;53.80;101493.16;5073321;28;20041;-60
2023/12/20 09:05:43;;;;;;;12.52;2.10;;;;;;;13.69;52.90;101479.88;5054712;28;20082;-60
2023/12/20 09:08:10;;;;;;;9.15;2.30;;;;;;;13.76;51.96;101487.28;5055120;28;20566;-60
2023/12/20 09:10:35;;;;;;;6.13;1.65;;;;;;;13.83;52.37;101484.91;5075448;28;20111;-60
2023/12/20 09:13:02;;;;;;;7.82;1.30;;;;;;;13.92;53.54;101482.28;5058620;28;20071;-60
2023/12/20 09:15:27;;;;;;;5.72;1.63;;;;;;;13.99;52.63;101469.13;5075581;28;20058;-60
2023/12/20 09:17:53;;;;;;;4.85;2.00;;;;;;;14.01;53.55;101473.38;5059955;28;20028;-60
2023/12/20 09:20:19;;;;;;;5.10;1.90;;;;;;;14.03;53.14;101457.09;5076809;28;20557;-60
2023/12/20 09:22:44;;;;;;;9.20;1.77;;;;;;;14.09;51.86;101458.38;5058157;28;20040;-60
2023/12/20 09:25:11;;;;;;;9.57;1.80;;;;;;;14.13;52.87;101457.97;5058417;28;20033;-60
2023/12/20 09:27:36;;;;;;;8.45;2.05;;;;;;;14.16;52.38;101460.41;5076473;28;20052;-60
2023/12/20 09:30:02;;;;;;;3.88;1.23;;;;;;;14.23;51.80;101458.88;5075290;28;20433;-60
2023/12/20 09:32:27;;;;;;;10.02;2.17;;;;;;;14.25;52.11;101461.41;5076346;28;20399;-60
2023/12/20 09:34:53;;;;;;;9.43;1.77;;;;;;;14.30;52.31;101454.63;5076296;28;20466;-60
2023/12/20 09:37:18;;;;;;;5.28;1.38;;;;;;;14.34;51.92;101472.28;5076130;28;20040;-61
2023/12/20 09:39:43;;;;;;;9.07;2.70;;;;;;;14.29;52.00;101452.91;5074889;28;20047;-61
2023/12/20 09:42:12;;;;;;;10.02;2.22;;;;;;;14.56;51.27;101461.25;5074782;28;20112;-60
2023/12/20 09:44:40;;;;;;;13.57;1.88;;;;;;;14.67;51.69;101465.66;5074565;28;20055;-61
2023/12/20 09:47:07;;;;;;;5.45;1.70;;;;;;;14.73;52.34;101450.75;5074808;28;20165;-60
2023/12/20 09:49:33;;;;;;;15.07;2.30;;;;;;;14.99;51.41;101462.72;5058122;28;20027;-61
2023/12/20 09:52:00;;;;;;;4.55;1.55;;;;;;;15.00;51.90;101464.41;5075528;28;20021;-60
2023/12/20 09:54:27;;;;;;;6.32;1.92;;;;;;;15.04;51.40;101473.94;5075943;27;20062;-60
2023/12/20 09:56:52;;;;;;;6.28;1.70;;;;;;;15.03;51.24;101469.50;5074540;28;20044;-60
2023/12/20 09:59:17;;;;;;;14.65;2.85;;;;;;;15.04;52.04;101457.72;5075841;28;20035;-60
2023/12/20 10:01:43;;;;;;;7.38;1.50;;;;;;;15.25;50.99;101468.34;5074495;28;20028;-61
2023/12/20 10:04:12;;;;;;;8.90;2.05;;;;;;;15.22;50.66;101472.19;5057585;28;20028;-60
2023/12/20 10:06:47;;;;;;;9.32;1.50;;;;;;;15.21;50.63;101467.81;5075804;28;20025;-60
2023/12/20 10:09:13;;;;;;;4.43;1.13;;;;;;;15.34;51.54;101468.34;5074562;28;20036;-60
2023/12/20 10:11:39;;;;;;;9.50;1.63;;;;;;;15.18;51.60;101462.69;5075516;27;20384;-60
2023/12/20 10:14:05;;;;;;;4.35;1.90;;;;;;;15.15;51.16;101454.88;5075662;28;20025;-60
2023/12/20 10:16:32;;;;;;;12.60;1.50;;;;;;;15.07;52.01;101438.56;5057977;28;20036;-60
2023/12/20 10:18:58;;;;;;;6.30;1.48;;;;;;;15.32;50.71;101442.50;5073963;28;20033;-60
2023/12/20 10:21:26;;;;;;;7.95;1.80;;;;;;;15.16;52.11;101438.53;5074063;28;20036;-61
2023/12/20 10:23:51;;;;;;;7.63;1.63;;;;;;;15.08;51.85;101445.66;5074655;28;20033;-61
2023/12/20 10:26:21;;;;;;;2.08;1.10;;;;;;;15.13;51.00;101427.22;5073961;28;20039;-61
2023/12/20 10:28:50;;;;;;;9.13;1.52;;;;;;;15.18;51.13;101438.41;5057453;28;20027;-60
2023/12/20 10:31:31;;;;;;;6.38;1.50;;;;;;;15.13;51.47;101438.00;5074205;28;20098;-60
2023/12/20 10:33:58;;;;;;;11.27;1.52;;;;;;;15.01;51.00;101444.53;5057315;28;20551;-61
2023/12/20 10:36:26;;;;;;;5.82;1.23;;;;;;;14.93;50.94;101429.06;5075243;28;20163;-60
2023/12/20 10:38:52;;;;;;;7.55;1.85;;;;;;;14.87;52.17;101442.25;5073524;28;20032;-61
2023/12/20 10:41:27;;;;;;;8.32;1.38;;;;;;;14.82;51.05;101439.13;5074025;28;20119;-60
2023/12/20 10:43:56;;;;;;;11.77;2.03;;;;;;;14.74;51.94;101441.69;5073769;28;20119;-60
2023/12/20 10:46:21;;;;;;;9.82;2.58;;;;;;;14.68;50.77;101437.72;5073841;28;20064;-60
2023/12/20 10:48:47;;;;;;;10.63;1.80;;;;;;;14.70;52.67;101434.88;5073743;28;20116;-61
2023/12/20 10:51:18;;;;;;;6.38;1.65;;;;;;;14.76;52.07;101428.91;5057014;28;20036;-60
2023/12/20 10:53:44;;;;;;;9.63;1.80;;;;;;;14.72;52.01;101439.13;5075130;28;20124;-59
2023/12/20 10:56:12;;;;;;;8.50;1.75;;;;;;;14.75;51.00;101435.28;5075144;28;20036;-60
2023/12/20 10:58:42;;;;;;;20.20;1.60;;;;;;;14.78;51.25;101438.56;5075257;28;20040;-61
2023/12/20 11:01:08;;;;;;;7.63;1.38;;;;;;;14.85;51.39;101430.75;5057612;28;20036;-60
2023/12/20 11:03:36;;;;;;;10.82;1.50;;;;;;;14.88;51.31;101423.22;5074818;28;20040;-60
2023/12/20 11:06:08;;;;;;;11.70;1.60;;;;;;;14.91;50.74;101427.47;5074971;28;20033;-60
2023/12/20 11:09:09;;;;;;;8.63;3.15;;;;;;;14.94;52.11;101411.00;5074637;28;20153;-61
2023/12/20 11:11:55;;;;;;;9.50;1.60;;;;;;;14.94;51.53;101411.00;5053941;28;20037;-60
2023/12/20 11:14:25;;;;;;;11.32;1.85;;;;;;;14.89;50.73;101403.34;5074546;28;20097;-60
2023/12/20 11:16:51;;;;;;;8.18;2.10;;;;;;;14.96;50.79;101409.03;5073396;27;20476;-60